sensor_id;sensor_type;location;lat;lon;timestamp;pressure;altitude;pressure_sealevel;temperature;humidity
40596;BME280;26304;48.794;9.820;2023-04-08T00:04:18;96481.50;;;17.36;46.04
40596;BME280;26304;48.794;9.820;2023-04-08T00:10:03;96486.75;;;17.36;45.96
40596;BME280;26304;48.794;9.820;2023-04-08T00:15:46;96489.34;;;17.33;47.15
40596;BME280;26304;48.794;9.820;2023-04-08T00:21:29;96488.56;;;17.32;46.26
40596;BME280;26304;48.794;9.820;2023-04-08T00:27:13;96491.19;;;17.32;46.90
40596;BME280;26304;48.794;9.820;2023-04-08T00:32:55;96493.44;;;17.30;46.18
40596;BME280;26304;48.794;9.820;2023-04-08T00:38:38;96496.06;;;17.30;46.18
40596;BME280;26304;48.794;9.820;2023-04-08T00:44:22;96490.06;;;17.30;46.20
40596;BME280;26304;48.794;9.820;2023-04-08T00:50:07;96491.16;;;17.29;46.21
40596;BME280;26304;48.794;9.820;2023-04-08T00:55:49;96496.41;;;17.29;46.34
40596;BME280;26304;48.794;9.820;2023-04-08T01:01:36;96491.50;;;17.27;46.85
40596;BME280;26304;48.794;9.820;2023-04-08T01:07:24;96496.72;;;17.23;47.13
40596;BME280;26304;48.794;9.820;2023-04-08T01:13:08;96494.81;;;17.20;46.61
40596;BME280;26304;48.794;9.820;2023-04-08T01:18:55;96490.69;;;17.23;46.61
40596;BME280;26304;48.794;9.820;2023-04-08T01:24:39;96496.81;;;17.65;45.32
40596;BME280;26304;48.794;9.820;2023-04-08T01:30:26;96492.66;;;18.49;44.32
40596;BME280;26304;48.794;9.820;2023-04-08T01:36:10;96496.06;;;19.27;42.92
40596;BME280;26304;48.794;9.820;2023-04-08T01:41:53;96498.88;;;19.81;41.97
40596;BME280;26304;48.794;9.820;2023-04-08T01:47:38;96499.31;;;20.33;41.14
40596;BME280;26304;48.794;9.820;2023-04-08T01:53:22;96497.00;;;20.82;40.82
40596;BME280;26304;48.794;9.820;2023-04-08T01:59:08;96484.88;;;20.92;40.48
40596;BME280;26304;48.794;9.820;2023-04-08T02:04:55;96495.75;;;21.16;40.30
40596;BME280;26304;48.794;9.820;2023-04-08T02:10:37;96497.16;;;21.49;39.90
40596;BME280;26304;48.794;9.820;2023-04-08T02:16:22;96500.34;;;21.82;39.42
40596;BME280;26304;48.794;9.820;2023-04-08T02:22:11;96496.44;;;22.01;39.16
40596;BME280;26304;48.794;9.820;2023-04-08T02:27:58;96493.03;;;22.04;39.39
40596;BME280;26304;48.794;9.820;2023-04-08T02:33:42;96499.38;;;22.14;39.38
40596;BME280;26304;48.794;9.820;2023-04-08T02:39:31;96493.94;;;22.32;39.17
40596;BME280;26304;48.794;9.820;2023-04-08T02:45:14;96499.72;;;22.65;38.96
40596;BME280;26304;48.794;9.820;2023-04-08T02:50:56;96506.38;;;22.80;38.83
40596;BME280;26304;48.794;9.820;2023-04-08T02:56:40;96497.75;;;22.73;38.99
40596;BME280;26304;48.794;9.820;2023-04-08T03:02:22;96499.56;;;22.79;38.90
40596;BME280;26304;48.794;9.820;2023-04-08T03:08:05;96497.50;;;22.94;38.69
40596;BME280;26304;48.794;9.820;2023-04-08T03:13:50;96496.00;;;23.31;38.41
40596;BME280;26304;48.794;9.820;2023-04-08T03:19:32;96495.31;;;23.24;38.57
40596;BME280;26304;48.794;9.820;2023-04-08T03:25:15;96487.81;;;23.18;38.66
40596;BME280;26304;48.794;9.820;2023-04-08T03:30:58;96494.84;;;22.98;39.24
40596;BME280;26304;48.794;9.820;2023-04-08T03:36:41;96501.31;;;23.58;38.60
40596;BME280;26304;48.794;9.820;2023-04-08T03:42:24;96502.00;;;24.17;37.84
40596;BME280;26304;48.794;9.820;2023-04-08T03:48:08;96500.06;;;24.21;37.67
40596;BME280;26304;48.794;9.820;2023-04-08T03:53:51;96503.41;;;24.25;38.00
40596;BME280;26304;48.794;9.820;2023-04-08T03:59:33;96502.59;;;24.05;38.37
40596;BME280;26304;48.794;9.820;2023-04-08T04:05:18;96503.41;;;24.02;38.37
40596;BME280;26304;48.794;9.820;2023-04-08T04:11:00;96517.34;;;23.79;39.15
40596;BME280;26304;48.794;9.820;2023-04-08T04:16:42;96520.78;;;23.48;39.94
40596;BME280;26304;48.794;9.820;2023-04-08T04:22:26;96520.97;;;23.34;40.43
40596;BME280;26304;48.794;9.820;2023-04-08T04:28:09;96528.13;;;23.02;41.13
40596;BME280;26304;48.794;9.820;2023-04-08T04:33:51;96531.38;;;22.79;41.54
40596;BME280;26304;48.794;9.820;2023-04-08T04:39:35;96536.19;;;22.50;42.25
40596;BME280;26304;48.794;9.820;2023-04-08T04:45:17;96528.03;;;22.30;42.26
40596;BME280;26304;48.794;9.820;2023-04-08T04:51:00;96536.13;;;22.08;42.19
40596;BME280;26304;48.794;9.820;2023-04-08T04:56:44;96541.53;;;21.87;42.77
40596;BME280;26304;48.794;9.820;2023-04-08T05:02:27;96540.56;;;21.59;44.57
40596;BME280;26304;48.794;9.820;2023-04-08T05:08:09;96545.50;;;21.53;43.96
40596;BME280;26304;48.794;9.820;2023-04-08T05:13:53;96553.44;;;21.42;44.79
40596;BME280;26304;48.794;9.820;2023-04-08T05:19:35;96552.72;;;21.38;44.96
40596;BME280;26304;48.794;9.820;2023-04-08T05:25:18;96557.66;;;21.22;44.86
40596;BME280;26304;48.794;9.820;2023-04-08T05:31:02;96557.69;;;21.15;44.99
40596;BME280;26304;48.794;9.820;2023-04-08T05:36:44;96565.69;;;20.86;44.90
40596;BME280;26304;48.794;9.820;2023-04-08T05:42:26;96564.16;;;20.85;44.78
40596;BME280;26304;48.794;9.820;2023-04-08T05:48:10;96580.41;;;20.76;44.87
40596;BME280;26304;48.794;9.820;2023-04-08T05:53:52;96591.00;;;20.65;44.94
40596;BME280;26304;48.794;9.820;2023-04-08T05:59:35;96593.63;;;20.58;45.02
40596;BME280;26304;48.794;9.820;2023-04-08T06:05:18;96592.47;;;20.48;44.83
40596;BME280;26304;48.794;9.820;2023-04-08T06:11:01;96598.13;;;20.40;45.28
40596;BME280;26304;48.794;9.820;2023-04-08T06:16:44;96598.88;;;20.33;45.15
40596;BME280;26304;48.794;9.820;2023-04-08T06:22:29;96610.94;;;20.30;45.47
40596;BME280;26304;48.794;9.820;2023-04-08T06:28:11;96618.47;;;20.25;45.42
40596;BME280;26304;48.794;9.820;2023-04-08T06:33:53;96616.59;;;20.25;45.31
40596;BME280;26304;48.794;9.820;2023-04-08T06:39:37;96619.56;;;20.13;45.30
40596;BME280;26304;48.794;9.820;2023-04-08T06:45:20;96615.03;;;20.13;45.09
40596;BME280;26304;48.794;9.820;2023-04-08T06:51:02;96622.97;;;20.03;45.33
40596;BME280;26304;48.794;9.820;2023-04-08T06:56:46;96616.16;;;19.98;45.27
40596;BME280;26304;48.794;9.820;2023-04-08T07:02:28;96629.34;;;19.94;45.10
40596;BME280;26304;48.794;9.820;2023-04-08T07:08:11;96621.41;;;19.91;45.57
40596;BME280;26304;48.794;9.820;2023-04-08T07:13:54;96622.50;;;19.83;45.53
40596;BME280;26304;48.794;9.820;2023-04-08T07:19:37;96632.69;;;19.77;45.68
40596;BME280;26304;48.794;9.820;2023-04-08T07:25:19;96634.50;;;19.73;45.40
40596;BME280;26304;48.794;9.820;2023-04-08T07:31:11;96637.88;;;19.70;45.50
40596;BME280;26304;48.794;9.820;2023-04-08T07:36:53;96644.63;;;19.67;45.50
40596;BME280;26304;48.794;9.820;2023-04-08T07:42:36;96640.88;;;19.65;45.28
40596;BME280;26304;48.794;9.820;2023-04-08T07:48:19;96646.16;;;19.65;45.60
40596;BME280;26304;48.794;9.820;2023-04-08T07:54:02;96646.88;;;19.62;45.05
40596;BME280;26304;48.794;9.820;2023-04-08T07:59:44;96649.88;;;19.56;45.42
40596;BME280;26304;48.794;9.820;2023-04-08T08:05:28;96646.09;;;19.57;45.50
40596;BME280;26304;48.794;9.820;2023-04-08T08:11:10;96657.00;;;19.52;45.43
40596;BME280;26304;48.794;9.820;2023-04-08T08:16:53;96663.78;;;19.50;45.71
40596;BME280;26304;48.794;9.820;2023-04-08T08:22:37;96671.66;;;19.46;45.89
40596;BME280;26304;48.794;9.820;2023-04-08T08:28:20;96675.81;;;19.44;45.60
40596;BME280;26304;48.794;9.820;2023-04-08T08:34:02;96676.19;;;19.42;45.31
40596;BME280;26304;48.794;9.820;2023-04-08T08:39:46;96676.13;;;19.35;45.41
40596;BME280;26304;48.794;9.820;2023-04-08T08:45:29;96687.81;;;19.37;45.38
40596;BME280;26304;48.794;9.820;2023-04-08T08:51:12;96691.19;;;19.38;45.32
40596;BME280;26304;48.794;9.820;2023-04-08T08:56:56;96693.47;;;19.39;44.87
40596;BME280;26304;48.794;9.820;2023-04-08T09:02:38;96695.66;;;19.30;45.36
40596;BME280;26304;48.794;9.820;2023-04-08T09:08:28;96691.19;;;19.38;45.32
40596;BME280;26304;48.794;9.820;2023-04-08T09:14:23;96688.94;;;19.40;44.92
40596;BME280;26304;48.794;9.820;2023-04-08T09:20:08;96697.72;;;19.55;44.85
40596;BME280;26304;48.794;9.820;2023-04-08T09:26:00;96689.84;;;19.62;44.42
40596;BME280;26304;48.794;9.820;2023-04-08T09:31:52;96703.44;;;19.64;45.64
40596;BME280;26304;48.794;9.820;2023-04-08T09:37:35;96698.53;;;19.70;45.89
40596;BME280;26304;48.794;9.820;2023-04-08T09:43:20;96695.91;;;19.73;46.07
40596;BME280;26304;48.794;9.820;2023-04-08T09:49:10;96697.81;;;19.73;46.48
40596;BME280;26304;48.794;9.820;2023-04-08T09:54:58;96702.72;;;19.74;46.33
40596;BME280;26304;48.794;9.820;2023-04-08T10:00:46;96705.78;;;19.80;46.63
40596;BME280;26304;48.794;9.820;2023-04-08T10:06:32;96707.28;;;19.77;46.48
40596;BME280;26304;48.794;9.820;2023-04-08T10:12:16;96703.44;;;19.68;46.64
40596;BME280;26304;48.794;9.820;2023-04-08T10:18:30;96704.19;;;19.72;46.83
40596;BME280;26304;48.794;9.820;2023-04-08T10:24:15;96705.13;;;19.35;44.15
40596;BME280;26304;48.794;9.820;2023-04-08T10:29:59;96716.66;;;19.16;43.56
40596;BME280;26304;48.794;9.820;2023-04-08T10:35:43;96714.31;;;19.03;43.04
40596;BME280;26304;48.794;9.820;2023-04-08T10:41:27;96709.00;;;19.00;43.34
40596;BME280;26304;48.794;9.820;2023-04-08T10:47:10;96713.06;;;18.94;44.13
40596;BME280;26304;48.794;9.820;2023-04-08T10:52:53;96722.47;;;18.87;44.03
40596;BME280;26304;48.794;9.820;2023-04-08T10:58:47;96718.25;;;18.83;44.13
40596;BME280;26304;48.794;9.820;2023-04-08T11:04:29;96709.72;;;18.97;46.54
40596;BME280;26304;48.794;9.820;2023-04-08T11:10:12;96711.47;;;18.82;46.30
40596;BME280;26304;48.794;9.820;2023-04-08T11:15:55;96709.56;;;18.82;46.03
40596;BME280;26304;48.794;9.820;2023-04-08T11:21:39;96711.44;;;18.78;45.98
40596;BME280;26304;48.794;9.820;2023-04-08T11:27:22;96710.97;;;18.69;45.81
40596;BME280;26304;48.794;9.820;2023-04-08T11:33:07;96713.09;;;18.56;45.52
40596;BME280;26304;48.794;9.820;2023-04-08T11:38:52;96714.53;;;18.50;44.64
40596;BME280;26304;48.794;9.820;2023-04-08T11:44:35;96717.16;;;18.50;43.82
40596;BME280;26304;48.794;9.820;2023-04-08T11:50:25;96718.19;;;18.38;43.03
40596;BME280;26304;48.794;9.820;2023-04-08T11:56:16;96718.56;;;18.40;42.46
40596;BME280;26304;48.794;9.820;2023-04-08T12:01:59;96721.94;;;18.37;42.95
40596;BME280;26304;48.794;9.820;2023-04-08T12:07:43;96730.06;;;18.25;42.75
40596;BME280;26304;48.794;9.820;2023-04-08T12:13:26;96735.25;;;18.18;43.11
40596;BME280;26304;48.794;9.820;2023-04-08T12:19:08;96732.91;;;18.12;42.91
40596;BME280;26304;48.794;9.820;2023-04-08T12:24:52;96733.66;;;18.09;42.20
40596;BME280;26304;48.794;9.820;2023-04-08T12:30:35;96726.72;;;17.97;42.32
40596;BME280;26304;48.794;9.820;2023-04-08T12:36:18;96722.53;;;17.93;42.34
40596;BME280;26304;48.794;9.820;2023-04-08T12:42:02;96731.56;;;17.92;42.63
40596;BME280;26304;48.794;9.820;2023-04-08T12:47:44;96742.06;;;17.92;42.73
40596;BME280;26304;48.794;9.820;2023-04-08T12:53:26;96728.84;;;17.88;43.41
40596;BME280;26304;48.794;9.820;2023-04-08T12:59:10;96735.50;;;17.82;43.46
40596;BME280;26304;48.794;9.820;2023-04-08T13:04:53;96731.69;;;17.76;42.54
40596;BME280;26304;48.794;9.820;2023-04-08T13:10:35;96721.91;;;17.76;42.69
40596;BME280;26304;48.794;9.820;2023-04-08T13:16:19;96720.41;;;17.75;43.00
40596;BME280;26304;48.794;9.820;2023-04-08T13:22:01;96719.59;;;17.71;42.55
40596;BME280;26304;48.794;9.820;2023-04-08T13:27:44;96723.34;;;17.70;42.49
40596;BME280;26304;48.794;9.820;2023-04-08T13:33:28;96725.22;;;17.70;42.56
40596;BME280;26304;48.794;9.820;2023-04-08T13:39:10;96723.28;;;17.67;42.82
40596;BME280;26304;48.794;9.820;2023-04-08T13:44:52;96721.72;;;17.62;42.58
40596;BME280;26304;48.794;9.820;2023-04-08T13:50:36;96736.69;;;17.58;42.20
40596;BME280;26304;48.794;9.820;2023-04-08T13:56:20;96731.56;;;17.69;42.84
40596;BME280;26304;48.794;9.820;2023-04-08T14:02:02;96729.66;;;17.66;43.26
40596;BME280;26304;48.794;9.820;2023-04-08T14:07:47;96742.00;;;17.61;43.04
40596;BME280;26304;48.794;9.820;2023-04-08T14:13:29;96735.38;;;17.71;43.29
40596;BME280;26304;48.794;9.820;2023-04-08T14:19:13;96748.88;;;17.70;43.82
40596;BME280;26304;48.794;9.820;2023-04-08T14:24:57;96745.28;;;17.82;44.14
40596;BME280;26304;48.794;9.820;2023-04-08T14:30:40;96745.69;;;17.57;43.64
40596;BME280;26304;48.794;9.820;2023-04-08T14:36:22;96751.09;;;17.18;43.30
40596;BME280;26304;48.794;9.820;2023-04-08T14:42:07;96754.03;;;17.13;42.86
40596;BME280;26304;48.794;9.820;2023-04-08T14:47:49;96752.50;;;17.12;42.54
40596;BME280;26304;48.794;9.820;2023-04-08T14:53:32;96753.78;;;16.98;42.62
40596;BME280;26304;48.794;9.820;2023-04-08T14:59:16;96754.34;;;16.88;42.91
40596;BME280;26304;48.794;9.820;2023-04-08T15:04:58;96765.97;;;16.87;42.95
40596;BME280;26304;48.794;9.820;2023-04-08T15:10:41;96768.31;;;16.73;42.84
40596;BME280;26304;48.794;9.820;2023-04-08T15:16:24;96773.41;;;16.65;43.05
40596;BME280;26304;48.794;9.820;2023-04-08T15:22:07;96770.00;;;16.61;42.67
40596;BME280;26304;48.794;9.820;2023-04-08T15:27:49;96781.59;;;16.60;43.31
40596;BME280;26304;48.794;9.820;2023-04-08T15:33:33;96781.59;;;16.60;43.12
40596;BME280;26304;48.794;9.820;2023-04-08T15:39:19;96780.06;;;16.20;44.18
40596;BME280;26304;48.794;9.820;2023-04-08T15:45:02;96781.84;;;15.65;45.27
40596;BME280;26304;48.794;9.820;2023-04-08T15:50:46;96790.75;;;16.70;44.62
40596;BME280;26304;48.794;9.820;2023-04-08T15:56:28;96793.81;;;17.15;43.54
40596;BME280;26304;48.794;9.820;2023-04-08T16:02:11;96789.34;;;17.38;44.38
40596;BME280;26304;48.794;9.820;2023-04-08T16:07:55;96793.41;;;17.59;44.84
40596;BME280;26304;48.794;9.820;2023-04-08T16:13:38;96798.56;;;17.78;45.87
40596;BME280;26304;48.794;9.820;2023-04-08T16:19:22;96811.59;;;17.94;45.92
40596;BME280;26304;48.794;9.820;2023-04-08T16:25:07;96803.81;;;18.02;46.67
40596;BME280;26304;48.794;9.820;2023-04-08T16:30:49;96804.69;;;18.09;46.27
40596;BME280;26304;48.794;9.820;2023-04-08T16:36:32;96805.06;;;18.11;46.73
40596;BME280;26304;48.794;9.820;2023-04-08T16:42:16;96809.34;;;18.54;47.45
40596;BME280;26304;48.794;9.820;2023-04-08T16:47:58;96818.97;;;18.39;47.38
40596;BME280;26304;48.794;9.820;2023-04-08T16:53:41;96822.41;;;18.43;47.32
40596;BME280;26304;48.794;9.820;2023-04-08T16:59:26;96828.25;;;18.63;48.97
40596;BME280;26304;48.794;9.820;2023-04-08T17:05:09;96833.03;;;18.54;48.52
40596;BME280;26304;48.794;9.820;2023-04-08T17:10:51;96841.03;;;18.61;49.44
40596;BME280;26304;48.794;9.820;2023-04-08T17:16:35;96841.94;;;19.10;49.92
40596;BME280;26304;48.794;9.820;2023-04-08T17:22:18;96847.53;;;19.01;50.24
40596;BME280;26304;48.794;9.820;2023-04-08T17:28:01;96848.72;;;19.07;50.42
40596;BME280;26304;48.794;9.820;2023-04-08T17:33:45;96845.41;;;19.17;50.32
40596;BME280;26304;48.794;9.820;2023-04-08T17:39:28;96842.53;;;19.30;48.97
40596;BME280;26304;48.794;9.820;2023-04-08T17:45:11;96854.78;;;19.11;48.67
40596;BME280;26304;48.794;9.820;2023-04-08T17:50:59;96861.22;;;19.14;48.25
40596;BME280;26304;48.794;9.820;2023-04-08T17:56:42;96871.75;;;19.14;48.15
40596;BME280;26304;48.794;9.820;2023-04-08T18:02:24;96869.56;;;19.19;48.57
40596;BME280;26304;48.794;9.820;2023-04-08T18:08:10;96874.06;;;19.19;47.86
40596;BME280;26304;48.794;9.820;2023-04-08T18:13:52;96887.53;;;19.10;48.80
40596;BME280;26304;48.794;9.820;2023-04-08T18:19:35;96890.63;;;19.19;49.41
40596;BME280;26304;48.794;9.820;2023-04-08T18:25:19;96891.50;;;19.31;48.45
40596;BME280;26304;48.794;9.820;2023-04-08T18:31:02;96900.88;;;19.28;49.89
40596;BME280;26304;48.794;9.820;2023-04-08T18:36:45;96911.53;;;19.39;49.06
40596;BME280;26304;48.794;9.820;2023-04-08T18:42:28;96917.78;;;19.23;49.31
40596;BME280;26304;48.794;9.820;2023-04-08T18:48:11;96915.50;;;19.22;50.16
40596;BME280;26304;48.794;9.820;2023-04-08T18:53:53;96922.66;;;19.21;49.85
40596;BME280;26304;48.794;9.820;2023-04-08T18:59:37;96927.56;;;19.23;50.12
40596;BME280;26304;48.794;9.820;2023-04-08T19:05:20;96930.22;;;19.23;50.14
40596;BME280;26304;48.794;9.820;2023-04-08T19:11:03;96930.28;;;18.96;49.25
40596;BME280;26304;48.794;9.820;2023-04-08T19:16:47;96941.13;;;18.64;45.69
40596;BME280;26304;48.794;9.820;2023-04-08T19:22:30;96949.84;;;18.42;44.19
40596;BME280;26304;48.794;9.820;2023-04-08T19:28:13;96952.34;;;18.31;43.47
40596;BME280;26304;48.794;9.820;2023-04-08T19:33:56;96946.50;;;18.18;42.82
40596;BME280;26304;48.794;9.820;2023-04-08T19:39:39;96936.97;;;18.10;43.20
40596;BME280;26304;48.794;9.820;2023-04-08T19:45:21;96942.59;;;18.08;43.90
40596;BME280;26304;48.794;9.820;2023-04-08T19:51:05;96954.28;;;17.88;44.11
40596;BME280;26304;48.794;9.820;2023-04-08T19:56:48;96957.59;;;17.85;43.07
40596;BME280;26304;48.794;9.820;2023-04-08T20:02:30;96954.28;;;17.88;43.51
40596;BME280;26304;48.794;9.820;2023-04-08T20:08:14;96960.13;;;17.77;42.85
40596;BME280;26304;48.794;9.820;2023-04-08T20:13:56;96951.34;;;17.70;43.08
40596;BME280;26304;48.794;9.820;2023-04-08T20:19:39;96957.16;;;17.59;44.21
40596;BME280;26304;48.794;9.820;2023-04-08T20:25:22;96957.69;;;17.46;43.68
40596;BME280;26304;48.794;9.820;2023-04-08T20:31:05;96963.28;;;17.44;43.81
40596;BME280;26304;48.794;9.820;2023-04-08T20:36:49;96965.13;;;17.63;44.16
40596;BME280;26304;48.794;9.820;2023-04-08T20:42:33;96974.50;;;17.64;44.88
40596;BME280;26304;48.794;9.820;2023-04-08T20:48:15;96968.31;;;17.53;45.20
40596;BME280;26304;48.794;9.820;2023-04-08T20:53:58;96977.28;;;17.71;44.84
40596;BME280;26304;48.794;9.820;2023-04-08T20:59:42;96970.19;;;17.75;45.05
40596;BME280;26304;48.794;9.820;2023-04-08T21:05:24;96963.84;;;17.76;46.12
40596;BME280;26304;48.794;9.820;2023-04-08T21:11:06;96966.81;;;17.75;45.29
40596;BME280;26304;48.794;9.820;2023-04-08T21:16:50;96959.28;;;17.73;45.17
40596;BME280;26304;48.794;9.820;2023-04-08T21:22:32;96961.50;;;17.71;45.49
40596;BME280;26304;48.794;9.820;2023-04-08T21:28:15;96957.69;;;17.69;45.66
40596;BME280;26304;48.794;9.820;2023-04-08T21:33:59;96958.03;;;17.67;45.14
40596;BME280;26304;48.794;9.820;2023-04-08T21:39:42;96950.16;;;17.67;45.46
40596;BME280;26304;48.794;9.820;2023-04-08T21:45:24;96945.59;;;17.64;45.49
40596;BME280;26304;48.794;9.820;2023-04-08T21:51:08;96944.44;;;17.61;45.32
40596;BME280;26304;48.794;9.820;2023-04-08T21:56:55;96951.53;;;17.61;45.38
40596;BME280;26304;48.794;9.820;2023-04-08T22:02:38;96948.50;;;17.59;45.80
40596;BME280;26304;48.794;9.820;2023-04-08T22:08:22;96957.50;;;17.58;45.28
40596;BME280;26304;48.794;9.820;2023-04-08T22:14:05;96962.75;;;17.58;45.80
40596;BME280;26304;48.794;9.820;2023-04-08T22:19:47;96964.97;;;17.56;45.43
40596;BME280;26304;48.794;9.820;2023-04-08T22:25:31;96959.66;;;17.52;45.60
40596;BME280;26304;48.794;9.820;2023-04-08T22:31:13;96949.84;;;17.49;45.69
40596;BME280;26304;48.794;9.820;2023-04-08T22:36:56;96952.13;;;17.51;45.69
40596;BME280;26304;48.794;9.820;2023-04-08T22:42:40;96955.09;;;17.49;46.00
40596;BME280;26304;48.794;9.820;2023-04-08T22:48:22;96944.53;;;17.46;45.76
40596;BME280;26304;48.794;9.820;2023-04-08T22:54:04;96941.47;;;17.43;46.00
40596;BME280;26304;48.794;9.820;2023-04-08T22:59:48;96942.59;;;17.42;45.86
40596;BME280;26304;48.794;9.820;2023-04-08T23:05:31;96942.94;;;17.41;46.43
40596;BME280;26304;48.794;9.820;2023-04-08T23:11:13;96936.16;;;17.40;45.98
40596;BME280;26304;48.794;9.820;2023-04-08T23:16:57;96929.72;;;17.37;46.17
40596;BME280;26304;48.794;9.820;2023-04-08T23:22:39;96930.84;;;17.36;46.20
40596;BME280;26304;48.794;9.820;2023-04-08T23:28:22;96931.94;;;17.35;45.92
40596;BME280;26304;48.794;9.820;2023-04-08T23:34:05;96931.53;;;17.33;46.29
40596;BME280;26304;48.794;9.820;2023-04-08T23:39:48;96937.53;;;17.34;46.15
40596;BME280;26304;48.794;9.820;2023-04-08T23:45:30;96936.78;;;17.33;46.35
40596;BME280;26304;48.794;9.820;2023-04-08T23:51:14;96936.78;;;17.33;46.45
40596;BME280;26304;48.794;9.820;2023-04-08T23:56:56;96937.47;;;17.30;46.47
